Time;durP1;ratioP1;P1;durP2;ratioP2;P2;SDS_P1;SDS_P2;PMS_P1;PMS_P2;Temp;Humidity;BMP_temperature;BMP_pressure;BME280_temperature;BME280_humidity;BME280_pressure;Samples;Min_cycle;Max_cycle;Signal;HPM_P1;HPM_P2
2023/06/03 00:02:12;;;;;;;4.07;1.43;;;10.10;67.90;;;;;;6253971;22;20015;-89
2023/06/03 00:04:41;;;;;;;2.60;1.17;;;10.10;67.70;;;;;;6227823;22;20025;-91
2023/06/03 00:07:08;;;;;;;4.13;1.40;;;10.00;67.70;;;;;;6205048;22;20018;-90
2023/06/03 00:09:34;;;;;;;2.67;1.10;;;10.00;67.30;;;;;;6253464;22;20042;-90
2023/06/03 00:12:00;;;;;;;3.07;1.13;;;10.00;67.10;;;;;;6227879;22;20023;-91
2023/06/03 00:14:27;;;;;;;6.40;1.23;;;10.00;67.00;;;;;;6252268;22;20090;-90
2023/06/03 00:16:56;;;;;;;3.93;1.00;;;10.00;66.90;;;;;;6246758;22;20727;-89
2023/06/03 00:19:25;;;;;;;7.27;1.30;;;9.90;66.70;;;;;;6227423;22;20031;-90
2023/06/03 00:21:51;;;;;;;2.27;1.03;;;9.80;66.70;;;;;;6254389;22;20019;-90
2023/06/03 00:24:25;;;;;;;1.90;1.07;;;9.80;66.60;;;;;;6277321;22;20027;-89
2023/06/03 00:26:52;;;;;;;3.13;1.07;;;9.70;66.70;;;;;;6246342;22;20126;-90
2023/06/03 00:29:19;;;;;;;4.47;1.10;;;9.70;66.50;;;;;;6277046;22;20023;-90
2023/06/03 00:31:45;;;;;;;2.00;1.30;;;9.60;66.60;;;;;;6254014;22;20019;-90
2023/06/03 00:34:14;;;;;;;2.37;1.30;;;9.60;66.50;;;;;;6244928;22;20027;-90
2023/06/03 00:36:42;;;;;;;2.70;1.07;;;9.60;66.60;;;;;;6248287;22;20050;-90
2023/06/03 00:39:14;;;;;;;3.50;1.03;;;9.50;66.50;;;;;;6227273;22;20019;-90
2023/06/03 00:41:40;;;;;;;5.63;1.33;;;9.50;66.50;;;;;;6253754;22;20377;-91
2023/06/03 00:44:05;;;;;;;4.03;1.20;;;9.50;66.50;;;;;;6227326;22;20023;-91
2023/06/03 00:46:36;;;;;;;2.70;1.07;;;9.60;66.50;;;;;;6274269;22;20041;-91
2023/06/03 00:49:03;;;;;;;3.53;1.02;;;9.60;66.50;;;;;;6249721;22;20030;-90
2023/06/03 00:51:31;;;;;;;2.93;0.87;;;9.50;66.50;;;;;;6227633;22;20054;-90
2023/06/03 00:53:58;;;;;;;3.13;1.00;;;9.50;66.40;;;;;;6251880;22;20015;-91
2023/06/03 00:56:23;;;;;;;3.90;1.17;;;9.50;66.30;;;;;;6250255;22;20019;-90
2023/06/03 00:58:50;;;;;;;14.70;1.13;;;9.50;66.30;;;;;;6222397;22;20038;-90
2023/06/03 01:01:18;;;;;;;2.03;0.80;;;9.50;66.10;;;;;;6254217;22;20026;-89
2023/06/03 01:03:47;;;;;;;4.07;0.80;;;9.50;66.00;;;;;;6277223;22;20015;-91
2023/06/03 01:06:27;;;;;;;2.43;0.70;;;9.50;66.10;;;;;;6251659;22;20030;-90
2023/06/03 01:09:14;;;;;;;5.25;1.00;;;9.40;66.00;;;;;;6247794;22;20314;-90
2023/06/03 01:12:11;;;;;;;4.13;1.10;;;9.40;65.80;;;;;;6253861;22;20015;-89
2023/06/03 01:14:54;;;;;;;4.67;1.23;;;9.40;65.60;;;;;;6241129;22;20019;-90
2023/06/03 01:17:27;;;;;;;1.80;0.93;;;9.40;65.60;;;;;;6236809;22;20392;-90
2023/06/03 01:19:56;;;;;;;4.03;0.80;;;9.40;65.70;;;;;;6278172;22;20019;-90
2023/06/03 01:22:26;;;;;;;3.23;1.10;;;9.40;65.60;;;;;;6277589;22;21575;-90
2023/06/03 01:25:06;;;;;;;1.50;0.80;;;9.40;65.60;;;;;;6228542;22;20098;-90
2023/06/03 01:27:37;;;;;;;4.20;1.07;;;9.40;65.50;;;;;;6217199;22;20068;-90
2023/06/03 01:30:12;;;;;;;3.63;1.00;;;9.40;65.70;;;;;;6254201;22;20385;-90
2023/06/03 01:32:39;;;;;;;2.40;0.90;;;9.40;65.60;;;;;;6251422;22;20094;-90
2023/06/03 01:35:08;;;;;;;3.17;0.90;;;9.30;65.70;;;;;;6228135;22;20029;-91
2023/06/03 01:37:34;;;;;;;4.10;1.00;;;9.30;65.70;;;;;;6246727;22;20034;-90
2023/06/03 01:40:02;;;;;;;4.00;1.20;;;9.20;65.70;;;;;;6253007;22;20053;-90
2023/06/03 01:42:28;;;;;;;4.60;0.90;;;9.20;65.70;;;;;;6251629;22;20384;-90
2023/06/03 01:44:57;;;;;;;3.33;1.17;;;9.20;65.80;;;;;;6227949;22;20019;-90
2023/06/03 01:47:23;;;;;;;3.23;1.00;;;9.20;65.90;;;;;;6245840;22;20022;-89
2023/06/03 01:49:48;;;;;;;2.47;1.00;;;9.20;65.90;;;;;;6278662;22;20419;-90
2023/06/03 01:52:14;;;;;;;3.63;1.23;;;9.20;65.90;;;;;;6276291;22;20058;-90
2023/06/03 01:54:40;;;;;;;6.53;0.90;;;9.20;65.90;;;;;;6228160;22;20015;-90
2023/06/03 01:57:07;;;;;;;3.80;1.07;;;9.20;65.70;;;;;;6219190;22;20019;-91
2023/06/03 01:59:35;;;;;;;3.87;0.90;;;9.20;65.70;;;;;;6278498;22;20015;-89
2023/06/03 02:02:01;;;;;;;3.70;1.20;;;9.20;65.60;;;;;;6253170;22;20096;-90
2023/06/03 02:04:27;;;;;;;3.00;0.90;;;9.20;65.70;;;;;;6251245;22;20437;-89
2023/06/03 02:06:59;;;;;;;1.93;1.00;;;9.20;65.70;;;;;;6243672;22;20011;-90
2023/06/03 02:09:28;;;;;;;2.03;1.00;;;9.10;65.70;;;;;;6252064;22;20023;-90
2023/06/03 02:11:58;;;;;;;3.07;1.10;;;9.00;65.80;;;;;;6253293;22;20019;-90
2023/06/03 02:14:26;;;;;;;6.30;1.13;;;9.00;65.80;;;;;;6235219;22;20089;-90
2023/06/03 02:16:56;;;;;;;3.07;0.97;;;9.00;65.80;;;;;;6268195;22;20018;-90
2023/06/03 02:19:25;;;;;;;4.73;0.97;;;9.00;65.80;;;;;;6251114;22;20445;-89
2023/06/03 02:21:58;;;;;;;2.90;1.10;;;9.00;66.00;;;;;;6278109;22;20090;-90
2023/06/03 02:24:28;;;;;;;2.77;0.90;;;9.00;66.00;;;;;;6252123;22;20480;-90
2023/06/03 02:26:54;;;;;;;4.40;1.37;;;9.00;66.10;;;;;;6244361;22;20017;-90
2023/06/03 02:29:25;;;;;;;3.23;1.10;;;8.90;66.20;;;;;;6250654;22;20499;-90
2023/06/03 02:31:52;;;;;;;2.95;1.08;;;8.90;66.20;;;;;;6279062;22;20019;-91
2023/06/03 02:34:18;;;;;;;2.43;1.00;;;8.80;66.30;;;;;;6250392;22;20334;-90
2023/06/03 02:36:44;;;;;;;2.50;1.03;;;8.80;66.40;;;;;;6246998;22;20062;-91
2023/06/03 02:39:11;;;;;;;1.73;1.07;;;8.80;66.50;;;;;;6251120;22;20015;-91
2023/06/03 02:41:38;;;;;;;2.97;1.10;;;8.70;66.50;;;;;;6253238;22;20034;-89
2023/06/03 02:44:06;;;;;;;2.33;1.20;;;8.60;66.60;;;;;;6251234;22;20519;-90
2023/06/03 02:46:35;;;;;;;5.83;1.53;;;8.60;66.70;;;;;;6220156;22;20473;-93
2023/06/03 02:49:06;;;;;;;5.57;1.37;;;8.60;66.70;;;;;;6250038;22;20068;-90
2023/06/03 02:51:32;;;;;;;2.95;1.60;;;8.60;66.80;;;;;;6227419;22;20030;-90
2023/06/03 02:53:58;;;;;;;4.07;1.23;;;8.60;66.90;;;;;;6252178;22;20015;-90
2023/06/03 02:56:27;;;;;;;3.20;1.17;;;8.60;67.00;;;;;;6274714;22;20377;-91
2023/06/03 02:58:56;;;;;;;4.23;1.50;;;8.50;67.10;;;;;;6247982;22;20385;-90
2023/06/03 03:01:23;;;;;;;4.03;1.40;;;8.50;67.20;;;;;;6252773;22;20015;-90
2023/06/03 03:03:53;;;;;;;3.27;1.70;;;8.50;67.30;;;;;;6237160;22;20019;-90
2023/06/03 03:06:24;;;;;;;4.07;1.35;;;8.50;67.40;;;;;;6249495;22;20019;-91
2023/06/03 03:08:53;;;;;;;2.50;1.60;;;8.50;67.40;;;;;;6223705;22;20330;-89
2023/06/03 03:11:19;;;;;;;4.10;2.00;;;8.40;67.50;;;;;;6252393;22;20030;-90
2023/06/03 03:13:46;;;;;;;3.73;1.40;;;8.40;67.50;;;;;;6251268;22;20346;-92
2023/06/03 03:16:13;;;;;;;6.87;1.70;;;8.40;67.60;;;;;;6251778;22;20022;-91
2023/06/03 03:18:40;;;;;;;2.73;1.70;;;8.40;67.50;;;;;;6220907;22;20016;-89
2023/06/03 03:21:06;;;;;;;3.80;1.80;;;8.40;67.50;;;;;;6252808;22;20333;-90
2023/06/03 03:23:34;;;;;;;3.97;1.70;;;8.30;67.50;;;;;;6252724;22;20384;-90
2023/06/03 03:26:01;;;;;;;3.40;1.40;;;8.30;67.50;;;;;;6253827;22;20437;-90
2023/06/03 03:28:30;;;;;;;5.43;1.67;;;8.30;67.60;;;;;;6231721;22;20030;-90
2023/06/03 03:30:56;;;;;;;5.83;1.50;;;8.30;67.60;;;;;;6255815;22;20061;-90
2023/06/03 03:33:24;;;;;;;4.70;1.50;;;8.20;67.60;;;;;;6279516;22;20080;-88
2023/06/03 03:35:50;;;;;;;4.97;1.20;;;8.30;67.60;;;;;;6254826;22;20049;-90
2023/06/03 03:38:20;;;;;;;4.27;1.50;;;8.20;67.70;;;;;;6273087;22;20333;-90
2023/06/03 03:40:49;;;;;;;4.00;1.60;;;8.20;67.70;;;;;;6280615;22;20021;-89
2023/06/03 03:43:16;;;;;;;3.63;1.50;;;8.20;67.70;;;;;;6253975;22;20019;-90
2023/06/03 03:45:43;;;;;;;5.47;1.70;;;8.20;67.80;;;;;;6256122;22;20567;-90
2023/06/03 03:48:14;;;;;;;4.93;1.50;;;8.20;67.80;;;;;;6222989;22;20189;-90
2023/06/03 03:50:42;;;;;;;4.40;1.73;;;8.20;67.90;;;;;;6281816;22;20034;-89
2023/06/03 03:53:10;;;;;;;5.33;1.90;;;8.20;67.90;;;;;;6280277;22;20438;-89
2023/06/03 03:55:42;;;;;;;4.73;1.60;;;8.20;67.90;;;;;;6257840;22;20073;-89
2023/06/03 03:58:27;;;;;;;;;;;8.20;68.00;;;;;;6252823;22;20019;-90
2023/06/03 04:01:03;;;;;;;4.90;1.63;;;8.20;68.20;;;;;;6260272;22;19964;-90
2023/06/03 04:03:30;;;;;;;5.17;1.43;;;8.30;68.10;;;;;;6238465;22;20078;-90
2023/06/03 04:05:59;;;;;;;3.70;1.50;;;8.30;68.10;;;;;;6256540;22;20319;-90
2023/06/03 04:08:49;;;;;;;4.60;1.27;;;8.30;68.10;;;;;;6248644;22;20072;-90
2023/06/03 04:11:25;;;;;;;4.37;1.60;;;8.40;68.10;;;;;;6281375;22;20030;-90
2023/06/03 04:13:52;;;;;;;3.27;1.70;;;8.40;68.10;;;;;;6253834;22;20031;-90
2023/06/03 04:16:34;;;;;;;6.63;1.50;;;8.50;68.10;;;;;;6252193;22;20015;-92
2023/06/03 04:19:06;;;;;;;3.27;1.50;;;8.50;68.20;;;;;;6250156;22;20042;-90
2023/06/03 04:21:32;;;;;;;;;;;8.50;68.20;;;;;;6254706;22;20583;-90
2023/06/03 04:23:58;;;;;;;7.87;1.57;;;8.60;68.30;;;;;;6252690;22;19981;-90
2023/06/03 04:26:24;;;;;;;4.47;1.97;;;8.60;68.20;;;;;;6247622;22;20034;-92
2023/06/03 04:28:50;;;;;;;3.63;1.83;;;8.60;68.20;;;;;;6207351;22;20019;-91
2023/06/03 04:31:19;;;;;;;5.50;1.70;;;8.60;68.20;;;;;;6254350;22;20023;-90
2023/06/03 04:33:52;;;;;;;3.77;1.70;;;8.60;68.30;;;;;;6252402;22;20046;-90
2023/06/03 04:36:24;;;;;;;4.73;1.90;;;8.80;68.40;;;;;;6249899;22;20019;-91
2023/06/03 04:38:52;;;;;;;5.50;1.67;;;8.80;68.40;;;;;;6251483;22;20019;-91
2023/06/03 04:41:22;;;;;;;4.22;1.52;;;8.90;68.50;;;;;;6230094;22;20022;-89
2023/06/03 04:43:47;;;;;;;4.30;1.73;;;8.90;68.50;;;;;;6252713;22;20023;-91
2023/06/03 04:46:16;;;;;;;3.03;1.67;;;9.00;68.50;;;;;;6227434;22;20015;-92
2023/06/03 04:48:45;;;;;;;3.47;1.80;;;9.10;68.60;;;;;;6247139;22;20019;-90
2023/06/03 04:51:11;;;;;;;5.80;1.50;;;9.20;68.50;;;;;;6229032;22;20051;-92
2023/06/03 04:53:45;;;;;;;4.93;1.60;;;9.30;68.30;;;;;;6238823;22;20445;-90
2023/06/03 04:56:12;;;;;;;2.13;1.38;;;9.40;68.30;;;;;;6226235;22;20361;-92
2023/06/03 04:58:40;;;;;;;6.07;1.87;;;9.50;68.30;;;;;;6196680;22;20023;-90
2023/06/03 05:01:08;;;;;;;3.03;1.47;;;9.60;68.10;;;;;;6253915;22;20022;-90
2023/06/03 05:03:44;;;;;;;2.73;1.57;;;9.70;68.20;;;;;;6252162;22;20019;-91
2023/06/03 05:06:11;;;;;;;2.77;1.60;;;9.80;68.10;;;;;;6252498;22;20441;-94
2023/06/03 05:08:40;;;;;;;4.17;1.47;;;10.00;68.00;;;;;;6246812;22;20441;-92
2023/06/03 05:11:05;;;;;;;2.47;1.40;;;10.10;68.00;;;;;;6279326;22;20019;-90
2023/06/03 05:13:32;;;;;;;4.20;1.60;;;10.20;67.90;;;;;;6250569;22;20387;-90
2023/06/03 05:15:57;;;;;;;3.57;1.30;;;10.40;68.10;;;;;;6250172;22;20011;-91
2023/06/03 05:18:23;;;;;;;3.17;1.70;;;10.60;68.20;;;;;;6243977;22;20102;-90
2023/06/03 05:20:49;;;;;;;2.37;1.50;;;10.90;68.10;;;;;;6276523;22;20337;-90
2023/06/03 05:23:15;;;;;;;2.77;1.33;;;11.10;67.90;;;;;;6250690;22;20034;-91
2023/06/03 05:25:43;;;;;;;3.03;1.57;;;11.40;67.60;;;;;;6203576;22;20015;-91
2023/06/03 05:28:14;;;;;;;6.13;1.20;;;11.80;67.20;;;;;;6218483;22;20015;-90
2023/06/03 05:30:40;;;;;;;4.23;1.40;;;12.20;66.90;;;;;;6250893;22;20079;-90
2023/06/03 05:33:09;;;;;;;2.40;1.40;;;12.50;66.10;;;;;;6248503;22;20023;-90
2023/06/03 05:35:34;;;;;;;1.65;1.00;;;13.00;65.60;;;;;;6250914;22;20019;-91
2023/06/03 05:38:03;;;;;;;3.88;1.02;;;13.50;65.00;;;;;;6243699;22;20442;-90
2023/06/03 05:40:32;;;;;;;4.95;1.52;;;13.80;64.20;;;;;;6250854;22;20015;-91
2023/06/03 05:42:57;;;;;;;4.13;1.25;;;14.00;63.90;;;;;;6249167;22;20027;-91
2023/06/03 05:45:23;;;;;;;2.85;0.90;;;14.10;63.40;;;;;;6251113;22;20099;-92
2023/06/03 05:47:55;;;;;;;4.78;1.20;;;14.00;63.20;;;;;;6240735;22;20077;-91
2023/06/03 05:50:23;;;;;;;3.72;1.15;;;13.90;63.00;;;;;;6248099;22;20020;-91
2023/06/03 05:52:49;;;;;;;2.08;1.02;;;13.80;63.40;;;;;;6248772;22;20011;-91
2023/06/03 05:55:18;;;;;;;2.20;1.13;;;13.90;63.70;;;;;;6252534;22;20019;-92
2023/06/03 05:57:52;;;;;;;6.78;0.98;;;13.90;63.80;;;;;;6245935;22;20023;-91
2023/06/03 06:00:20;;;;;;;4.88;1.27;;;14.00;63.30;;;;;;6278257;22;20015;-92
2023/06/03 06:02:47;;;;;;;3.95;1.20;;;14.00;63.20;;;;;;6225970;22;20085;-91
2023/06/03 06:05:14;;;;;;;2.35;0.90;;;13.90;63.20;;;;;;6252764;22;20034;-91
2023/06/03 06:07:40;;;;;;;3.58;1.10;;;14.10;63.50;;;;;;6244745;22;20057;-91
2023/06/03 06:10:09;;;;;;;3.50;1.00;;;14.10;63.00;;;;;;6252923;22;20555;-92
2023/06/03 08:13:54;;;;;;;;;;;;;;;;;;;;;
2023/06/03 09:22:03;;;;;;;2.80;0.60;;;16.80;52.40;;;;;;5895190;24;20024;-96
2023/06/03 09:33:58;;;;;;;1.55;0.40;;;17.00;50.80;;;;;;5846532;24;20025;-95
2023/06/03 09:37:10;;;;;;;0.73;0.30;;;17.00;53.40;;;;;;5847922;24;20030;-93
2023/06/03 09:58:55;;;;;;;1.08;0.43;;;17.20;52.30;;;;;;5761935;24;20595;-95
2023/06/03 10:02:20;;;;;;;2.72;0.45;;;17.20;52.20;;;;;;5889102;24;20040;-95
2023/06/03 10:09:49;;;;;;;;;;;;;;;;;;;;;
2023/06/03 10:12:51;;;;;;;;;;;;;;;;;;;;;
2023/06/03 10:19:37;;;;;;;2.78;0.57;;;17.40;51.60;;;;;;5911771;24;20071;-96
2023/06/03 10:22:25;;;;;;;1.73;0.50;;;17.40;51.30;;;;;;5872222;24;20128;-94
2023/06/03 10:29:18;;;;;;;;;;;;;;;;;;;;;
2023/06/03 10:36:06;;;;;;;2.15;0.30;;;17.50;51.10;;;;;;5877807;24;20025;-94
2023/06/03 10:39:25;;;;;;;4.30;0.52;;;17.50;51.20;;;;;;5913219;23;21122;-93
2023/06/03 10:42:56;;;;;;;4.68;0.60;;;17.50;50.20;;;;;;6064985;23;20019;-94
2023/06/03 10:49:30;;;;;;;2.45;0.50;;;17.50;51.20;;;;;;6061665;23;20094;-96
2023/06/03 11:16:19;;;;;;;;;;;;;;;;;;;;;
2023/06/03 11:19:58;;;;;;;1.73;0.60;;;17.90;51.20;;;;;;5927033;24;20610;-95
2023/06/03 11:27:06;;;;;;;2.33;0.80;;;18.00;50.80;;;;;;5896148;24;20078;-96
2023/06/03 11:30:47;;;;;;;;;;;;;;;;;;;;;
2023/06/03 11:34:21;;;;;;;2.65;0.60;;;18.00;50.80;;;;;;5850255;24;20458;-95
2023/06/03 11:37:24;;;;;;;;;;;;;;;;;;;;;
2023/06/03 12:00:03;;;;;;;;;;;;;;;;;;;;;
2023/06/03 12:11:01;;;;;;;1.20;0.52;;;18.10;53.30;;;;;;5962828;23;20023;-96
2023/06/03 12:14:25;;;;;;;2.55;0.47;;;18.10;51.00;;;;;;5918460;24;20034;-93
2023/06/03 12:25:00;;;;;;;9.35;0.75;;;18.30;50.20;;;;;;5783174;24;20117;-96
2023/06/03 12:32:07;;;;;;;2.30;0.50;;;18.50;51.10;;;;;;5800107;24;20475;-94
2023/06/03 12:35:27;;;;;;;1.67;0.60;;;18.70;50.70;;;;;;5805158;24;20036;-95
2023/06/03 12:45:37;;;;;;;;;;;;;;;;;;;;;
2023/06/03 12:49:25;;;;;;;;;;;;;;;;;;;;;
2023/06/03 12:56:52;;;;;;;;;;;;;;;;;;;;;
2023/06/03 13:07:01;;;;;;;4.38;0.70;;;18.70;51.30;;;;;;5917362;24;20021;-93
2023/06/03 13:10:16;;;;;;;4.32;0.60;;;18.70;52.20;;;;;;5961674;23;20417;-93
2023/06/03 13:13:37;;;;;;;1.30;0.40;;;18.60;50.80;;;;;;5987906;23;20023;-94
2023/06/03 13:16:33;;;;;;;2.42;0.60;;;18.60;50.80;;;;;;5987196;23;20058;-95
2023/06/03 13:23:22;;;;;;;3.75;0.43;;;18.60;51.10;;;;;;6071547;23;20142;-95
2023/06/03 13:25:53;;;;;;;2.20;0.57;;;18.70;51.30;;;;;;6075593;23;20022;-94
2023/06/03 13:28:25;;;;;;;4.45;0.70;;;18.70;50.90;;;;;;6050846;23;20020;-92
2023/06/03 13:30:55;;;;;;;4.95;0.60;;;18.70;50.70;;;;;;6110667;23;20017;-95
2023/06/03 13:33:31;;;;;;;1.63;0.50;;;18.60;50.90;;;;;;6118332;23;20029;-96
2023/06/03 13:35:59;;;;;;;3.47;0.50;;;18.60;51.40;;;;;;6134962;23;20491;-96
2023/06/03 13:38:31;;;;;;;3.15;0.50;;;18.70;51.20;;;;;;6162625;23;20332;-94
2023/06/03 13:41:47;;;;;;;3.90;0.47;;;18.70;51.10;;;;;;6164239;23;20055;-93
2023/06/03 13:44:59;;;;;;;4.10;0.73;;;18.80;51.70;;;;;;6165938;23;20033;-93
2023/06/03 13:48:00;;;;;;;2.10;0.40;;;18.90;51.20;;;;;;6056777;23;20040;-94
2023/06/03 13:51:06;;;;;;;2.60;0.50;;;18.90;51.50;;;;;;5986843;23;20019;-96
2023/06/03 13:54:13;;;;;;;2.47;0.52;;;18.90;50.80;;;;;;5866402;24;20037;-96
2023/06/03 13:56:44;;;;;;;3.65;0.60;;;18.90;50.90;;;;;;5899850;24;20492;-92
2023/06/03 13:59:32;;;;;;;1.35;0.32;;;18.90;50.90;;;;;;5879925;24;20089;-93
2023/06/03 14:02:10;;;;;;;2.75;0.50;;;18.80;50.90;;;;;;6020149;23;20019;-94
2023/06/03 14:11:31;;;;;;;3.85;0.68;;;19.00;51.70;;;;;;6024556;23;20025;-92
2023/06/03 14:14:15;;;;;;;4.18;0.70;;;19.10;51.40;;;;;;6144894;23;20903;-96
2023/06/03 14:17:02;;;;;;;1.38;0.70;;;19.10;51.30;;;;;;6131337;23;20103;-94
2023/06/03 14:19:36;;;;;;;2.15;0.47;;;19.10;51.50;;;;;;6159137;23;20047;-95
2023/06/03 14:22:15;;;;;;;;;;;;;;;;;;;;;
2023/06/03 14:25:15;;;;;;;4.85;0.50;;;19.10;51.30;;;;;;5978947;23;20048;-93
2023/06/03 14:27:47;;;;;;;2.92;0.43;;;19.10;51.40;;;;;;5937002;23;20034;-96
2023/06/03 14:34:22;;;;;;;3.78;0.50;;;19.10;51.70;;;;;;5959249;24;20032;-95
2023/06/03 14:37:20;;;;;;;3.45;0.57;;;19.00;51.60;;;;;;5903244;24;20052;-96
2023/06/03 14:40:40;;;;;;;6.15;1.00;;;18.90;51.50;;;;;;5970361;23;20351;-91
2023/06/03 14:47:13;;;;;;;5.13;0.80;;;18.90;52.20;;;;;;5949685;24;20086;-93
2023/06/03 14:50:01;;;;;;;6.22;0.68;;;19.00;52.30;;;;;;6058635;23;20022;-96
2023/06/03 14:52:54;;;;;;;4.75;0.65;;;19.10;52.40;;;;;;6080799;23;20070;-93
2023/06/03 14:55:47;;;;;;;1.90;0.60;;;19.10;52.00;;;;;;6068576;23;20022;-92
2023/06/03 14:58:37;;;;;;;3.25;0.50;;;19.10;51.80;;;;;;6010519;23;20031;-96
2023/06/03 15:01:08;;;;;;;2.50;0.52;;;19.00;51.60;;;;;;5959773;23;20031;-93
2023/06/03 15:06:36;;;;;;;3.13;0.60;;;19.00;52.00;;;;;;5994063;23;20077;-93
2023/06/03 15:12:09;;;;;;;6.68;0.80;;;19.20;52.10;;;;;;6031524;23;20019;-93
2023/06/03 15:14:38;;;;;;;3.25;0.65;;;19.30;51.80;;;;;;5990244;23;20034;-94
2023/06/03 15:17:07;;;;;;;2.85;0.77;;;19.30;51.70;;;;;;6027748;23;20531;-93
2023/06/03 15:19:53;;;;;;;0.90;0.43;;;19.20;51.80;;;;;;6084752;23;20038;-96
2023/06/03 15:23:08;;;;;;;;;;;;;;;;;;;;;
2023/06/03 15:25:59;;;;;;;;;;;;;;;;;;;;;
2023/06/03 15:28:35;;;;;;;2.22;0.45;;;19.20;51.70;;;;;;6127132;23;20021;-94
2023/06/03 15:31:07;;;;;;;1.90;0.60;;;19.10;51.60;;;;;;6134139;23;20023;-91
2023/06/03 15:33:33;;;;;;;1.65;0.40;;;19.00;51.40;;;;;;6107573;23;20025;-90
2023/06/03 15:35:59;;;;;;;4.82;0.60;;;18.90;51.50;;;;;;6134025;23;20091;-93
2023/06/03 15:38:40;;;;;;;3.47;0.50;;;18.90;51.50;;;;;;6104938;23;20056;-95
2023/06/03 15:41:11;;;;;;;1.38;0.50;;;18.90;51.90;;;;;;6132393;23;20443;-93
2023/06/03 15:43:37;;;;;;;4.15;0.77;;;18.90;51.40;;;;;;6132003;23;20017;-91
2023/06/03 15:46:03;;;;;;;3.88;0.50;;;18.90;51.60;;;;;;6135486;23;20035;-91
2023/06/03 15:48:29;;;;;;;3.38;0.73;;;18.90;51.50;;;;;;6100903;23;20029;-92
2023/06/03 15:50:56;;;;;;;1.98;0.60;;;18.90;51.70;;;;;;6133399;23;20024;-91
2023/06/03 15:53:25;;;;;;;2.15;0.98;;;18.80;51.50;;;;;;6131393;23;20025;-90
2023/06/03 15:55:56;;;;;;;1.30;0.50;;;18.70;51.50;;;;;;6133386;23;20020;-92
2023/06/03 15:58:54;;;;;;;;;;;;;;;;;;;;;
2023/06/03 16:01:43;;;;;;;2.58;0.45;;;18.60;51.70;;;;;;6216145;23;20025;-93
2023/06/03 16:04:12;;;;;;;3.60;0.73;;;18.60;51.70;;;;;;6211987;23;20025;-90
2023/06/03 16:09:36;;;;;;;2.63;0.70;;;18.50;52.00;;;;;;6128978;23;20117;-95
2023/06/03 16:12:01;;;;;;;2.17;0.50;;;18.40;52.30;;;;;;6208285;23;20024;-92
2023/06/03 16:14:30;;;;;;;2.28;0.60;;;18.30;52.20;;;;;;6207697;23;20039;-92
2023/06/03 16:17:00;;;;;;;2.20;0.40;;;18.20;52.20;;;;;;6178003;23;20722;-91
2023/06/03 16:19:26;;;;;;;3.00;0.60;;;18.30;52.30;;;;;;6182157;23;20093;-93
2023/06/03 16:21:54;;;;;;;3.97;0.50;;;18.20;52.30;;;;;;6184370;23;20012;-92
2023/06/03 16:24:20;;;;;;;2.45;0.47;;;18.20;52.40;;;;;;6208070;23;20051;-94
2023/06/03 16:26:55;;;;;;;2.75;0.50;;;18.30;52.50;;;;;;6178982;23;20079;-92
2023/06/03 16:29:30;;;;;;;2.38;0.63;;;18.30;52.40;;;;;;6182589;23;20611;-95
2023/06/03 16:31:55;;;;;;;1.92;0.60;;;18.30;52.60;;;;;;6185984;23;20392;-92
2023/06/03 16:34:22;;;;;;;1.35;0.63;;;18.30;52.90;;;;;;6167826;23;20036;-91
2023/06/03 16:36:51;;;;;;;2.63;0.40;;;18.30;52.80;;;;;;6204086;23;20023;-92
2023/06/03 16:39:17;;;;;;;2.55;0.57;;;18.20;53.00;;;;;;6179888;23;20440;-90
2023/06/03 16:42:17;;;;;;;3.38;0.45;;;18.20;53.00;;;;;;6212135;23;20079;-96
2023/06/03 16:44:43;;;;;;;4.38;0.80;;;18.10;53.20;;;;;;6232793;23;20084;-90
2023/06/03 16:47:12;;;;;;;2.22;0.63;;;18.10;53.30;;;;;;6176961;23;20024;-94
2023/06/03 16:50:04;;;;;;;3.05;0.70;;;18.10;53.40;;;;;;6186150;23;20102;-95
2023/06/03 16:52:40;;;;;;;2.97;0.40;;;18.10;53.70;;;;;;6184239;23;20083;-94
2023/06/03 16:55:18;;;;;;;2.85;0.70;;;18.00;53.80;;;;;;6212368;23;20451;-96
2023/06/03 16:58:01;;;;;;;;;;;;;;;;;;;;;
2023/06/03 17:00:28;;;;;;;3.35;0.50;;;17.80;53.70;;;;;;6186899;23;20476;-96
2023/06/03 17:02:54;;;;;;;1.90;0.68;;;17.80;53.70;;;;;;6210099;23;20020;-96
2023/06/03 17:05:23;;;;;;;2.42;0.63;;;17.70;53.70;;;;;;6212616;23;20094;-93
2023/06/03 17:08:01;;;;;;;3.03;0.47;;;17.70;54.00;;;;;;6202004;23;20471;-95
2023/06/03 17:10:28;;;;;;;3.13;0.50;;;17.70;54.00;;;;;;6188926;23;20023;-96
2023/06/03 17:13:22;;;;;;;3.10;0.75;;;17.60;54.20;;;;;;6195764;23;20023;-96
2023/06/03 17:19:54;;;;;;;2.67;0.50;;;17.50;53.90;;;;;;6163725;23;20030;-95
2023/06/03 17:22:20;;;;;;;1.23;0.30;;;17.40;54.00;;;;;;6174653;23;20020;-94
2023/06/03 17:24:49;;;;;;;2.13;0.60;;;17.30;54.10;;;;;;6187881;23;20021;-95
2023/06/03 17:27:14;;;;;;;2.22;0.80;;;17.20;54.20;;;;;;6181681;23;20068;-96
2023/06/03 17:30:27;;;;;;;4.18;0.55;;;17.00;54.20;;;;;;6189425;23;20478;-96
2023/06/03 17:36:30;;;;;;;2.97;0.40;;;16.90;54.40;;;;;;6211939;23;20023;-94
2023/06/03 17:38:58;;;;;;;1.00;0.43;;;16.80;54.70;;;;;;6186060;23;20338;-91
2023/06/03 17:41:38;;;;;;;1.85;0.40;;;16.80;54.50;;;;;;6211794;23;20446;-92
2023/06/03 17:44:04;;;;;;;3.50;0.60;;;16.70;54.10;;;;;;6186459;23;20020;-90
2023/06/03 17:46:30;;;;;;;2.45;0.55;;;16.60;54.10;;;;;;6208888;23;20008;-92
2023/06/03 17:48:58;;;;;;;1.30;0.50;;;16.50;54.30;;;;;;6195094;23;20481;-91
2023/06/03 17:51:24;;;;;;;3.38;0.57;;;16.40;54.60;;;;;;6188244;23;20032;-91
2023/06/03 17:53:52;;;;;;;2.45;0.63;;;16.40;54.90;;;;;;6224141;23;20075;-91
2023/06/03 17:56:18;;;;;;;5.68;0.57;;;16.30;55.40;;;;;;6211635;23;20016;-92
2023/06/03 17:58:44;;;;;;;1.80;0.60;;;16.30;55.90;;;;;;6208172;23;20021;-90
2023/06/03 18:01:12;;;;;;;4.40;0.80;;;16.20;56.20;;;;;;6213870;23;20023;-89
2023/06/03 18:03:41;;;;;;;2.38;0.65;;;16.20;56.60;;;;;;6195825;23;20021;-91
2023/06/03 18:06:09;;;;;;;6.03;0.82;;;16.10;57.10;;;;;;6188568;23;20343;-94
2023/06/03 18:08:35;;;;;;;4.03;0.80;;;16.10;57.40;;;;;;6181073;23;20399;-91
2023/06/03 18:11:10;;;;;;;2.50;0.68;;;16.00;57.50;;;;;;6188838;23;20013;-91
2023/06/03 18:13:36;;;;;;;1.63;0.60;;;15.90;57.80;;;;;;6174831;23;20071;-90
2023/06/03 18:16:11;;;;;;;2.92;0.50;;;15.80;57.70;;;;;;6163677;23;20387;-90
2023/06/03 18:18:39;;;;;;;4.28;0.60;;;15.70;57.90;;;;;;6182586;23;20044;-90
2023/06/03 18:21:07;;;;;;;2.47;0.57;;;15.60;58.00;;;;;;6213811;23;20056;-90
2023/06/03 18:23:33;;;;;;;2.85;0.55;;;15.60;58.00;;;;;;6212542;23;20110;-90
2023/06/03 18:25:59;;;;;;;1.70;0.80;;;15.50;58.00;;;;;;6213513;23;20439;-91
2023/06/03 18:28:30;;;;;;;3.90;0.65;;;15.50;58.10;;;;;;6180535;23;20035;-90
2023/06/03 18:30:56;;;;;;;;;;;15.40;58.30;;;;;;6188407;23;20047;-90
2023/06/03 18:33:22;;;;;;;2.90;0.50;;;15.30;58.70;;;;;;6187353;23;19916;-90
2023/06/03 18:35:48;;;;;;;6.30;0.90;;;15.30;58.30;;;;;;6188383;23;20501;-90
2023/06/03 18:38:14;;;;;;;2.38;0.65;;;15.20;58.60;;;;;;6206924;23;20023;-91
2023/06/03 18:40:40;;;;;;;4.95;0.80;;;15.20;58.70;;;;;;6188453;23;20012;-89
2023/06/03 18:43:06;;;;;;;6.82;1.02;;;15.10;58.90;;;;;;6212006;23;20096;-91
2023/06/03 18:45:31;;;;;;;4.78;1.00;;;15.00;59.30;;;;;;6213604;23;20027;-90
2023/06/03 18:47:57;;;;;;;4.50;1.10;;;15.00;59.60;;;;;;6206070;23;20020;-89
2023/06/03 18:50:23;;;;;;;4.65;0.93;;;14.90;59.80;;;;;;6187868;23;20114;-89
2023/06/03 18:52:49;;;;;;;6.10;1.25;;;14.90;60.10;;;;;;6201928;23;20016;-89
2023/06/03 18:55:15;;;;;;;3.75;1.02;;;14.80;60.40;;;;;;6188500;23;20021;-89
2023/06/03 18:57:41;;;;;;;3.38;1.00;;;14.70;60.80;;;;;;6180011;23;20118;-89
2023/06/03 19:00:07;;;;;;;3.97;1.15;;;14.70;60.90;;;;;;6188206;23;20016;-89
2023/06/03 19:02:33;;;;;;;4.78;0.93;;;14.70;61.10;;;;;;6211285;23;20025;-89
2023/06/03 19:04:59;;;;;;;6.07;1.40;;;14.60;61.30;;;;;;6238650;23;20187;-90
2023/06/03 19:07:25;;;;;;;2.08;1.00;;;14.50;61.60;;;;;;6205182;23;20029;-90
2023/06/03 19:09:51;;;;;;;2.83;1.20;;;14.40;61.80;;;;;;6187979;23;20095;-89
2023/06/03 19:12:17;;;;;;;4.53;1.30;;;14.30;61.90;;;;;;6211868;22;20071;-90
2023/06/03 19:14:43;;;;;;;3.47;1.08;;;14.30;62.10;;;;;;6187476;23;20023;-90
2023/06/03 19:17:09;;;;;;;5.32;1.33;;;14.20;62.30;;;;;;6180537;23;20023;-89
2023/06/03 19:19:35;;;;;;;5.05;1.17;;;14.20;62.50;;;;;;6213143;23;20048;-90
2023/06/03 19:22:00;;;;;;;3.53;1.20;;;14.10;62.70;;;;;;6212530;23;20017;-89
2023/06/03 19:24:28;;;;;;;2.45;1.30;;;14.00;62.90;;;;;;6211813;23;20443;-90
2023/06/03 19:26:54;;;;;;;4.10;1.30;;;13.90;62.90;;;;;;6181627;23;20201;-89
2023/06/03 19:29:20;;;;;;;3.97;1.30;;;13.90;63.20;;;;;;6210841;23;20470;-90
2023/06/03 19:31:48;;;;;;;3.20;1.30;;;13.90;63.20;;;;;;6187956;23;20013;-90
2023/06/03 19:34:14;;;;;;;2.83;1.40;;;13.80;63.40;;;;;;6186091;23;20448;-90
2023/06/03 19:36:42;;;;;;;3.05;1.10;;;13.70;63.60;;;;;;6182656;23;20044;-90
2023/06/03 19:39:08;;;;;;;7.57;1.65;;;13.60;63.70;;;;;;6211460;23;20021;-90
2023/06/03 19:41:35;;;;;;;4.20;1.80;;;13.50;64.00;;;;;;6187936;23;20444;-89
2023/06/03 19:44:01;;;;;;;4.63;1.70;;;13.50;64.20;;;;;;6210767;23;20025;-90
2023/06/03 19:46:31;;;;;;;5.22;2.10;;;13.40;64.30;;;;;;6209277;23;20050;-92
2023/06/03 19:48:57;;;;;;;3.08;1.60;;;13.30;64.60;;;;;;6209287;23;20110;-89